Time;durP1;ratioP1;P1;durP2;ratioP2;P2;SDS_P1;SDS_P2;PMS_P1;PMS_P2;Temp;Humidity;BMP_temperature;BMP_pressure;BME280_temperature;BME280_humidity;BME280_pressure;Samples;Min_cycle;Max_cycle;Signal;HPM_P1;HPM_P2
2022/09/02 00:00:19;;;;;;;;;;;;;;;14.26;56.73;98235.16;5000402;28;19921;-82
2022/09/02 00:03:07;;;;;;;;;;;;;;;14.19;57.43;98238.41;5012217;28;19996;-86
2022/09/02 00:06:21;;;;;;;;;;;;;;;14.15;57.24;98241.00;5012482;28;19929;-84
2022/09/02 00:09:11;;;;;;;;;;;;;;;14.20;56.87;98231.81;5005981;28;19921;-83
2022/09/02 00:12:00;;;;;;;;;;;;;;;14.18;57.46;98236.03;5012274;28;19929;-88
2022/09/02 00:14:50;;;;;;;;;;;;;;;14.22;57.25;98234.22;5011982;28;19926;-87
2022/09/02 00:17:39;;;;;;;;;;;;;;;14.10;57.41;98232.97;5014313;28;19928;-86
2022/09/02 00:20:29;;;;;;;;;;;;;;;14.19;57.25;98230.22;5006910;28;20467;-85
2022/09/02 00:23:17;;;;;;;;;;;;;;;14.07;57.76;98230.09;4999395;28;20176;-84
2022/09/02 00:26:07;;;;;;;;;;;;;;;13.88;58.39;98230.47;4998558;28;19938;-85
2022/09/02 00:28:56;;;;;;;;;;;;;;;13.82;58.46;98226.31;4997071;28;19932;-80
2022/09/02 00:31:45;;;;;;;;;;;;;;;13.97;57.54;98222.25;5001464;28;19930;-86
2022/09/02 00:34:34;;;;;;;;;;;;;;;14.01;57.64;98213.09;5007201;28;19928;-87
2022/09/02 00:37:23;;;;;;;;;;;;;;;14.03;57.68;98219.03;5012858;28;19922;-82
2022/09/02 00:40:11;;;;;;;;;;;;;;;13.95;57.89;98222.56;5004373;28;19925;-84
2022/09/02 00:43:01;;;;;;;;;;;;;;;13.81;58.56;98213.78;5011225;28;19941;-83
2022/09/02 00:45:50;;;;;;;;;;;;;;;13.72;59.17;98213.00;5007977;28;20059;-84
2022/09/02 00:48:40;;;;;;;;;;;;;;;13.83;58.92;98206.06;5015249;28;20454;-84
2022/09/02 00:51:36;;;;;;;;;;;;;;;13.67;59.21;98204.97;5012615;28;19921;-85
2022/09/02 00:54:27;;;;;;;;;;;;;;;13.57;59.47;98214.28;5007817;28;19928;-82
2022/09/02 00:57:18;;;;;;;;;;;;;;;13.42;60.41;98207.41;5001560;28;20012;-87
2022/09/02 01:00:10;;;;;;;;;;;;;;;13.41;60.42;98202.28;4997760;28;19929;-83
2022/09/02 01:02:59;;;;;;;;;;;;;;;13.54;59.84;98199.38;4993340;28;20412;-84
2022/09/02 01:05:49;;;;;;;;;;;;;;;13.44;59.99;98199.72;5007570;28;19925;-83
2022/09/02 01:08:38;;;;;;;;;;;;;;;13.52;60.02;98201.63;4994950;28;19932;-85
2022/09/02 01:14:40;;;;;;;;;;;;;;;13.44;60.21;98194.25;5001266;28;20626;-87
2022/09/02 01:17:33;;;;;;;;;;;;;;;13.55;59.94;98190.06;5002802;28;20365;-81
2022/09/02 01:20:23;;;;;;;;;;;;;;;13.44;60.05;98188.78;4996292;28;19922;-87
2022/09/02 01:23:14;;;;;;;;;;;;;;;13.44;60.09;98188.00;5004805;28;19936;-83
2022/09/02 01:26:03;;;;;;;;;;;;;;;13.32;60.58;98183.19;4999265;28;20536;-83
2022/09/02 01:28:51;;;;;;;;;;;;;;;13.41;60.05;98186.69;5003416;28;19929;-85
2022/09/02 01:32:05;;;;;;;;;;;;;;;13.28;60.48;98185.75;4995758;28;19921;-86
2022/09/02 01:34:56;;;;;;;;;;;;;;;13.28;60.60;98187.69;5005738;28;19922;-86
2022/09/02 01:37:47;;;;;;;;;;;;;;;13.30;60.69;98185.44;5012121;28;19930;-86
2022/09/02 01:40:43;;;;;;;;;;;;;;;13.21;60.40;98181.84;5010727;28;19921;-84
2022/09/02 01:43:34;;;;;;;;;;;;;;;13.18;60.83;98183.31;5013061;28;19932;-86
2022/09/02 01:46:23;;;;;;;;;;;;;;;12.87;61.95;98180.75;5015246;28;19926;-83
2022/09/02 01:49:40;;;;;;;;;;;;;;;12.90;61.93;98176.59;5011610;28;20373;-86
2022/09/02 01:52:54;;;;;;;;;;;;;;;12.85;62.08;98172.88;5009789;28;19921;-82
2022/09/02 01:55:44;;;;;;;;;;;;;;;13.02;61.50;98180.28;5006096;28;19948;-81
2022/09/02 01:58:35;;;;;;;;;;;;;;;13.01;61.66;98178.66;5006650;28;20013;-84
2022/09/02 02:04:40;;;;;;;;;;;;;;;12.99;61.51;98175.44;5012785;28;19929;-84
2022/09/02 02:07:29;;;;;;;;;;;;;;;12.92;61.42;98177.84;5009490;28;20513;-87
2022/09/02 02:10:21;;;;;;;;;;;;;;;12.82;61.96;98172.72;4998218;28;20448;-85
2022/09/02 02:13:11;;;;;;;;;;;;;;;12.95;61.75;98171.78;4993953;28;19936;-85
2022/09/02 02:16:02;;;;;;;;;;;;;;;12.98;61.87;98171.13;5016029;28;19928;-88
2022/09/02 02:18:50;;;;;;;;;;;;;;;12.93;61.79;98165.03;5002150;28;20277;-84
2022/09/02 02:21:40;;;;;;;;;;;;;;;12.80;62.36;98162.13;5008380;28;19930;-83
2022/09/02 02:24:28;;;;;;;;;;;;;;;12.89;61.63;98155.88;5003426;28;19921;-84
2022/09/02 02:27:17;;;;;;;;;;;;;;;13.00;61.50;98159.91;5002945;28;20424;-84
2022/09/02 02:30:32;;;;;;;;;;;;;;;12.97;61.41;98160.53;5005994;28;19933;-81
2022/09/02 02:33:27;;;;;;;;;;;;;;;12.94;61.37;98161.97;5009580;28;20483;-85
2022/09/02 02:36:44;;;;;;;;;;;;;;;12.77;62.13;98162.75;5008374;28;19985;-83
2022/09/02 02:39:36;;;;;;;;;;;;;;;12.79;61.88;98166.00;5014425;28;19921;-81
2022/09/02 02:42:24;;;;;;;;;;;;;;;12.80;62.04;98169.50;5005451;28;19929;-83
2022/09/02 02:45:14;;;;;;;;;;;;;;;12.61;62.75;98169.78;5011259;28;20285;-82
2022/09/02 02:48:05;;;;;;;;;;;;;;;12.62;62.92;98170.59;5007988;28;19925;-83
2022/09/02 02:50:53;;;;;;;;;;;;;;;12.65;62.47;98168.03;5010970;28;19940;-83
2022/09/02 02:53:42;;;;;;;;;;;;;;;12.70;62.19;98165.16;5001520;28;19929;-83
2022/09/02 02:59:44;;;;;;;;;;;;;;;12.53;62.90;98163.22;4999744;28;20429;-80
2022/09/02 03:02:33;;;;;;;;;;;;;;;12.47;62.96;98158.25;5007514;28;20036;-80
2022/09/02 03:05:26;;;;;;;;;;;;;;;12.41;63.25;98157.59;5004569;28;19933;-81
2022/09/02 03:08:19;;;;;;;;;;;;;;;12.32;63.60;98148.59;4996016;28;19922;-80
2022/09/02 03:11:11;;;;;;;;;;;;;;;12.27;63.77;98148.72;5002483;28;19922;-84
2022/09/02 03:14:26;;;;;;;;;;;;;;;12.20;63.85;98148.41;5005556;28;19922;-83
2022/09/02 03:17:14;;;;;;;;;;;;;;;12.19;63.99;98153.03;4997246;28;19932;-84
2022/09/02 03:20:04;;;;;;;;;;;;;;;12.30;63.36;98150.81;5006265;28;19928;-84
2022/09/02 03:22:58;;;;;;;;;;;;;;;12.14;63.86;98142.25;4999807;28;19922;-82
2022/09/02 03:25:48;;;;;;;;;;;;;;;12.17;63.55;98144.38;4997552;28;19929;-82
2022/09/02 03:28:47;;;;;;;;;;;;;;;12.39;62.86;98148.13;4999479;28;20360;-81
2022/09/02 03:31:41;;;;;;;;;;;;;;;12.32;62.93;98143.94;5004931;28;20423;-87
2022/09/02 03:34:31;;;;;;;;;;;;;;;12.36;62.79;98138.66;5000025;28;19992;-85
2022/09/02 03:37:20;;;;;;;;;;;;;;;12.56;62.11;98138.03;5006289;28;20012;-84
2022/09/02 03:40:12;;;;;;;;;;;;;;;12.61;62.17;98133.56;5003245;28;19925;-85
2022/09/02 03:43:00;;;;;;;;;;;;;;;12.58;62.04;98130.38;4998974;28;20040;-89
2022/09/02 03:45:50;;;;;;;;;;;;;;;12.57;62.41;98136.94;5003043;28;19925;-84
2022/09/02 03:48:39;;;;;;;;;;;;;;;12.52;62.47;98137.09;4993097;28;19947;-81
2022/09/02 03:54:46;;;;;;;;;;;;;;;12.62;62.29;98130.50;5000523;28;19948;-83
2022/09/02 03:57:38;;;;;;;;;;;;;;;12.51;62.67;98135.47;5002764;28;20373;-83
2022/09/02 04:00:32;;;;;;;;;;;;;;;12.36;63.59;98133.22;5000039;28;19965;-86
2022/09/02 04:03:32;;;;;;;;;;;;;;;12.38;63.14;98136.41;5005137;28;19932;-87
2022/09/02 04:06:23;;;;;;;;;;;;;;;12.43;62.93;98132.75;5000985;28;20261;-82
2022/09/02 04:09:16;;;;;;;;;;;;;;;12.26;63.50;98134.31;5002457;28;19969;-84
2022/09/02 04:12:05;;;;;;;;;;;;;;;12.42;62.99;98134.66;4995138;28;19929;-84
2022/09/02 04:14:56;;;;;;;;;;;;;;;12.26;63.53;98130.78;4991149;28;19925;-82
2022/09/02 04:21:30;;;;;;;;;;;;;;;12.30;63.60;98146.19;5017378;28;20020;-85
2022/09/02 04:24:43;;;;;;;;;;;;;;;12.38;63.15;98141.06;5023510;28;19921;-77
2022/09/02 04:27:56;;;;;;;;;;;;;;;12.30;63.22;98138.00;5009842;28;19929;-81
2022/09/02 04:30:47;;;;;;;;;;;;;;;12.22;63.70;98137.97;5002497;28;19925;-85
2022/09/02 04:37:13;;;;;;;;;;;;;;;12.34;63.13;98132.72;5001925;28;19926;-85
2022/09/02 04:40:02;;;;;;;;;;;;;;;12.27;63.47;98141.34;5009712;28;19931;-84
2022/09/02 04:42:52;;;;;;;;;;;;;;;12.41;63.34;98137.69;4999372;28;19960;-84
2022/09/02 04:45:43;;;;;;;;;;;;;;;12.36;63.68;98138.66;5010385;28;19932;-81
2022/09/02 04:48:36;;;;;;;;;;;;;;;12.32;63.16;98137.69;5012578;28;20451;-82
2022/09/02 04:51:52;;;;;;;;;;;;;;;12.18;63.65;98131.56;5003379;28;19927;-84
2022/09/02 04:54:43;;;;;;;;;;;;;;;12.30;63.61;98140.75;5008295;28;19928;-83
2022/09/02 04:57:32;;;;;;;;;;;;;;;12.44;62.99;98146.03;5001919;28;19925;-86
2022/09/02 05:00:22;;;;;;;;;;;;;;;12.47;62.93;98142.69;5003469;28;20485;-82
2022/09/02 05:03:12;;;;;;;;;;;;;;;12.54;62.74;98142.22;5003108;28;20079;-84
2022/09/02 05:06:06;;;;;;;;;;;;;;;12.46;63.41;98141.06;4995392;28;19972;-84
2022/09/02 05:09:00;;;;;;;;;;;;;;;12.48;63.33;98147.03;4999916;28;20007;-84
2022/09/02 05:12:03;;;;;;;;;;;;;;;12.31;64.04;98147.78;5008378;28;19936;-82
2022/09/02 05:15:07;;;;;;;;;;;;;;;12.43;63.10;98149.09;5011871;28;19926;-82
2022/09/02 05:17:59;;;;;;;;;;;;;;;12.27;64.00;98149.53;5003330;28;20008;-82
2022/09/02 05:20:47;;;;;;;;;;;;;;;12.41;63.51;98159.47;5006601;28;19929;-84
2022/09/02 05:23:39;;;;;;;;;;;;;;;12.40;63.35;98155.97;5006834;28;19968;-81
2022/09/02 05:26:28;;;;;;;;;;;;;;;12.58;62.56;98157.63;5005778;28;19925;-84
2022/09/02 05:29:19;;;;;;;;;;;;;;;12.71;62.28;98158.59;5018341;28;19928;-79
2022/09/02 05:32:09;;;;;;;;;;;;;;;12.40;63.49;98161.41;5009177;28;20314;-82
2022/09/02 05:34:59;;;;;;;;;;;;;;;12.48;63.26;98160.63;5008543;28;19922;-83
2022/09/02 05:37:51;;;;;;;;;;;;;;;12.41;63.72;98157.59;5009184;28;19926;-83
2022/09/02 05:40:45;;;;;;;;;;;;;;;12.52;63.75;98149.91;5002951;28;20031;-83
2022/09/02 05:43:36;;;;;;;;;;;;;;;12.62;63.36;98157.75;5001585;28;19988;-78
2022/09/02 05:46:25;;;;;;;;;;;;;;;12.60;63.39;98160.03;5007849;28;20038;-81
2022/09/02 05:49:17;;;;;;;;;;;;;;;12.46;63.57;98154.69;5002864;28;19926;-81
2022/09/02 05:52:12;;;;;;;;;;;;;;;12.52;64.05;98156.16;5006037;28;19972;-83
2022/09/02 05:55:05;;;;;;;;;;;;;;;12.67;63.53;98160.34;5008088;28;19926;-84
2022/09/02 05:57:59;;;;;;;;;;;;;;;12.91;63.16;98159.91;5006897;28;19932;-81
2022/09/02 06:00:48;;;;;;;;;;;;;;;13.05;62.24;98162.47;5006934;28;19937;-82
2022/09/02 06:04:02;;;;;;;;;;;;;;;12.84;62.92;98156.84;5001894;28;20613;-85
2022/09/02 06:06:51;;;;;;;;;;;;;;;13.07;62.55;98152.84;4999461;28;20015;-83
2022/09/02 06:09:43;;;;;;;;;;;;;;;13.13;62.67;98163.59;5013596;28;20332;-81
2022/09/02 06:12:32;;;;;;;;;;;;;;;13.06;62.12;98153.16;5003981;28;20078;-84
2022/09/02 06:15:22;;;;;;;;;;;;;;;13.13;61.97;98158.13;5003687;28;20695;-86
2022/09/02 06:18:11;;;;;;;;;;;;;;;13.13;62.54;98155.41;5016391;28;19980;-85
2022/09/02 06:24:14;;;;;;;;;;;;;;;13.23;62.57;98155.91;5017501;28;19925;-86
2022/09/02 06:27:29;;;;;;;;;;;;;;;13.46;61.90;98158.44;5004815;28;19928;-84
2022/09/02 06:30:45;;;;;;;;;;;;;;;13.50;61.29;98160.19;5001226;28;19932;-86
2022/09/02 06:36:51;;;;;;;;;;;;;;;13.73;60.86;98159.97;5007345;28;19984;-85
2022/09/02 06:39:43;;;;;;;;;;;;;;;13.89;60.44;98155.59;4996203;28;19960;-85
2022/09/02 06:42:37;;;;;;;;;;;;;;;14.09;60.26;98159.53;4987893;28;19928;-86
2022/09/02 06:45:47;;;;;;;;;;;;;;;14.19;60.00;98161.09;5010017;28;20312;-84
2022/09/02 06:48:36;;;;;;;;;;;;;;;14.21;59.97;98164.31;5005452;28;19959;-83
2022/09/02 06:51:34;;;;;;;;;;;;;;;14.27;59.55;98155.59;5006944;28;20311;-85
2022/09/02 06:54:26;;;;;;;;;;;;;;;14.31;59.27;98161.19;5006801;28;19925;-82
2022/09/02 06:57:25;;;;;;;;;;;;;;;14.59;59.04;98161.53;5002247;28;20008;-87
2022/09/02 07:00:19;;;;;;;;;;;;;;;14.66;58.40;98159.91;5015784;28;19921;-85
2022/09/02 07:06:41;;;;;;;;;;;;;;;14.84;57.68;98162.50;5014788;28;19980;-88
2022/09/02 07:09:30;;;;;;;;;;;;;;;15.10;58.55;98165.06;5013460;28;20383;-87
2022/09/02 07:12:07;;;;;;;;;;;;;;;15.19;57.25;98163.06;5013491;28;19976;-89
2022/09/02 07:14:40;;;;;;;;;;;;;;;15.04;57.55;98163.66;5006399;28;19933;-90
2022/09/02 07:17:16;;;;;;;;;;;;;;;15.22;56.30;98161.56;5008827;28;19922;-87
2022/09/02 07:19:49;;;;;;;;;;;;;;;14.92;56.91;98157.00;5008975;28;20345;-85
2022/09/02 07:22:18;;;;;;;;;;;;;;;15.07;57.27;98168.44;5011103;28;19922;-89
2022/09/02 07:30:56;;;;;;;;;;;;;;;15.36;56.61;98159.34;5007869;28;20045;-89
2022/09/02 07:33:57;;;;;;;;;;;;;;;15.59;56.52;98166.03;4997777;28;19932;-88
2022/09/02 07:36:27;;;;;;;;;;;;;;;15.61;56.12;98169.25;5013229;28;19921;-88
2022/09/02 07:38:57;;;;;;;;;;;;;;;15.97;56.04;98167.75;5000704;28;20360;-86
2022/09/02 07:44:20;;;;;;;;;;;;;;;16.07;54.89;98152.81;4994722;28;19921;-89
2022/09/02 07:47:16;;;;;;;;;;;;;;;16.40;54.20;98153.50;5008422;28;19976;-89
2022/09/02 07:49:46;;;;;;;;;;;;;;;16.55;53.46;98157.50;5010383;28;19928;-90
2022/09/02 07:52:36;;;;;;;;;;;;;;;16.38;53.91;98147.56;5011154;28;19980;-89
2022/09/02 07:55:04;;;;;;;;;;;;;;;16.74;53.70;98149.50;5008002;28;19983;-90
2022/09/02 07:57:33;;;;;;;;;;;;;;;16.91;53.19;98142.94;5013713;28;19983;-89
2022/09/02 08:00:03;;;;;;;;;;;;;;;17.03;52.51;98148.41;5027089;28;19977;-80
2022/09/02 08:02:40;;;;;;;;;;;;;;;16.91;52.18;98150.38;5007345;28;20366;-93
2022/09/02 08:05:15;;;;;;;;;;;;;;;17.04;52.36;98146.44;5011841;28;19929;-91
2022/09/02 08:07:47;;;;;;;;;;;;;;;17.21;51.87;98143.44;5014086;28;19997;-88
2022/09/02 08:10:16;;;;;;;;;;;;;;;16.98;51.94;98145.09;5011808;28;19922;-90
2022/09/02 08:12:53;;;;;;;;;;;;;;;17.24;52.29;98145.47;5009778;28;20016;-90
2022/09/02 08:15:21;;;;;;;;;;;;;;;17.10;51.39;98150.56;5021484;28;20000;-89
2022/09/02 08:17:49;;;;;;;;;;;;;;;17.31;51.31;98150.38;5009746;28;20391;-90
2022/09/02 08:20:17;;;;;;;;;;;;;;;17.48;51.26;98152.81;5011090;28;20029;-87
2022/09/02 08:22:45;;;;;;;;;;;;;;;17.39;51.19;98151.38;5004968;28;19925;-90
2022/09/02 08:25:22;;;;;;;;;;;;;;;17.55;50.37;98154.94;5019750;28;20300;-90
2022/09/02 08:27:53;;;;;;;;;;;;;;;17.39;50.21;98151.38;5014794;28;19921;-90
2022/09/02 08:30:22;;;;;;;;;;;;;;;17.65;50.48;98150.91;5001396;28;19933;-91
2022/09/02 08:32:51;;;;;;;;;;;;;;;17.84;49.44;98148.28;5009146;28;19922;-90
2022/09/02 08:35:43;;;;;;;;;;;;;;;17.94;49.88;98149.72;5004672;28;19928;-90
2022/09/02 08:38:12;;;;;;;;;;;;;;;17.93;48.94;98143.41;5007132;28;19925;-90
2022/09/02 08:40:41;;;;;;;;;;;;;;;18.15;48.62;98139.25;5020362;28;20388;-90
2022/09/02 08:43:14;;;;;;;;;;;;;;;18.02;49.28;98140.50;5004599;28;20402;-90
2022/09/02 08:45:42;;;;;;;;;;;;;;;17.97;48.92;98138.00;5008624;28;19927;-90
2022/09/02 08:48:14;;;;;;;;;;;;;;;17.88;48.31;98135.44;5018523;28;19928;-90
2022/09/02 08:50:43;;;;;;;;;;;;;;;18.21;48.30;98132.31;5011835;28;19929;-90
2022/09/02 08:53:14;;;;;;;;;;;;;;;18.16;48.91;98124.34;5012769;28;19972;-91
2022/09/02 08:55:47;;;;;;;;;;;;;;;18.26;48.11;98126.53;5002915;28;20058;-89
2022/09/02 08:58:17;;;;;;;;;;;;;;;18.33;48.83;98125.94;5015875;28;19997;-89
2022/09/02 09:00:46;;;;;;;;;;;;;;;18.40;47.51;98133.56;5029250;28;19953;-86
2022/09/02 09:03:16;;;;;;;;;;;;;;;18.63;47.19;98123.47;5015897;28;20569;-90
2022/09/02 09:05:46;;;;;;;;;;;;;;;18.49;46.38;98126.72;5006369;28;20009;-89
2022/09/02 09:08:17;;;;;;;;;;;;;;;18.33;45.89;98112.97;5033689;28;19925;-89
2022/09/02 09:11:33;;;;;;;;;;;;;;;18.41;45.70;98124.94;5004324;28;19927;-83
2022/09/02 09:14:48;;;;;;;;;;;;;;;18.54;45.48;98117.38;5012625;28;20004;-89
2022/09/02 09:17:38;;;;;;;;;;;;;;;18.77;44.66;98112.81;5006851;28;19932;-88
2022/09/02 09:20:28;;;;;;;;;;;;;;;19.01;45.40;98119.19;5012983;28;19929;-78
2022/09/02 09:23:23;;;;;;;;;;;;;;;19.07;45.86;98112.25;5027481;28;19925;-81
2022/09/02 09:26:17;;;;;;;;;;;;;;;18.65;45.00;98110.16;5020327;28;19921;-85
2022/09/02 09:29:06;;;;;;;;;;;;;;;18.52;45.83;98111.44;5008956;28;19921;-88
2022/09/02 09:31:59;;;;;;;;;;;;;;;18.81;44.92;98105.44;5004653;28;19956;-87
2022/09/02 09:35:00;;;;;;;;;;;;;;;18.97;43.41;98104.59;5012217;28;19932;-85
2022/09/02 09:37:49;;;;;;;;;;;;;;;18.92;42.72;98110.38;5008093;28;19991;-85
2022/09/02 09:40:38;;;;;;;;;;;;;;;19.24;43.15;98103.56;5003728;28;20700;-87
2022/09/02 09:43:29;;;;;;;;;;;;;;;19.42;43.13;98100.34;5005272;28;19925;-85
2022/09/02 09:46:22;;;;;;;;;;;;;;;19.57;41.65;98096.69;5007296;28;19921;-88
2022/09/02 09:49:17;;;;;;;;;;;;;;;19.11;40.86;98102.09;5011368;28;19973;-87
2022/09/02 09:52:06;;;;;;;;;;;;;;;18.92;42.93;98088.34;5013648;28;20459;-86
2022/09/02 09:55:15;;;;;;;;;;;;;;;18.98;43.30;98093.19;5008261;28;19976;-87
2022/09/02 09:58:08;;;;;;;;;;;;;;;19.05;42.72;98087.03;5009061;28;19921;-80
2022/09/02 10:00:59;;;;;;;;;;;;;;;19.06;41.85;98077.59;5018070;28;19921;-79
2022/09/02 10:03:49;;;;;;;;;;;;;;;19.27;40.98;98080.78;5007926;28;19921;-88
2022/09/02 10:06:40;;;;;;;;;;;;;;;19.41;40.10;98071.19;5008097;28;19928;-81
2022/09/02 10:12:16;;;;;;;;;;;;;;;19.57;37.85;98071.88;5006228;28;19925;-90
2022/09/02 10:14:44;;;;;;;;;;;;;;;19.25;39.42;98072.09;5018783;28;20368;-90
2022/09/02 10:17:17;;;;;;;;;;;;;;;19.20;39.40;98071.59;5014198;28;19937;-92
2022/09/02 10:20:06;;;;;;;;;;;;;;;19.26;40.36;98070.13;4998913;28;19948;-87
2022/09/02 10:23:03;;;;;;;;;;;;;;;19.39;41.35;98063.31;5014780;28;19921;-86
2022/09/02 10:25:55;;;;;;;;;;;;;;;19.60;40.58;98060.16;5014218;28;20369;-85
2022/09/02 10:29:00;;;;;;;;;;;;;;;19.87;40.02;98061.81;5013656;28;19929;-85
2022/09/02 10:31:52;;;;;;;;;;;;;;;19.91;38.99;98056.34;5009779;28;19929;-86
2022/09/02 10:34:41;;;;;;;;;;;;;;;19.95;39.65;98059.16;4994159;28;20445;-86
2022/09/02 10:37:31;;;;;;;;;;;;;;;19.62;38.43;98060.59;5023246;28;20400;-87
2022/09/02 10:40:24;;;;;;;;;;;;;;;19.76;39.64;98054.50;5020136;28;20416;-87
2022/09/02 10:43:19;;;;;;;;;;;;;;;19.65;38.92;98054.31;4998102;28;19925;-85
2022/09/02 10:49:23;;;;;;;;;;;;;;;19.62;38.62;98052.31;5006146;28;19933;-84
2022/09/02 10:52:13;;;;;;;;;;;;;;;19.69;38.11;98048.88;5003251;28;20368;-86
2022/09/02 10:55:04;;;;;;;;;;;;;;;19.75;37.81;98050.16;5023766;28;19952;-83
2022/09/02 10:57:54;;;;;;;;;;;;;;;19.95;37.84;98039.88;5024879;28;19921;-85
2022/09/02 11:00:44;;;;;;;;;;;;;;;20.04;38.46;98038.44;5002928;28;19920;-85
2022/09/02 11:03:38;;;;;;;;;;;;;;;20.10;37.75;98030.66;5024227;28;20352;-85
2022/09/02 11:06:28;;;;;;;;;;;;;;;20.19;37.18;98031.19;5011196;28;19928;-87
2022/09/02 11:09:30;;;;;;;;;;;;;;;20.15;37.68;98022.06;5006721;28;19921;-83
2022/09/02 11:12:19;;;;;;;;;;;;;;;20.25;38.57;98026.13;5006391;28;19921;-86
2022/09/02 11:15:12;;;;;;;;;;;;;;;20.51;39.67;98023.38;5011226;28;20394;-86
2022/09/02 11:18:01;;;;;;;;;;;;;;;20.49;37.02;98025.69;5007686;28;19925;-85
2022/09/02 11:20:53;;;;;;;;;;;;;;;20.50;36.82;98026.50;5005204;28;19926;-86
2022/09/02 11:26:56;;;;;;;;;;;;;;;20.54;36.67;98008.03;5004048;28;19926;-86
2022/09/02 11:29:50;;;;;;;;;;;;;;;20.74;37.17;98012.22;5006598;28;19936;-88
2022/09/02 11:32:41;;;;;;;;;;;;;;;20.87;36.39;98007.25;5016999;28;19926;-90
2022/09/02 11:35:35;;;;;;;;;;;;;;;20.89;35.58;98005.72;5003978;28;19932;-86
2022/09/02 11:38:29;;;;;;;;;;;;;;;20.74;35.40;97998.44;5000275;28;19925;-87
2022/09/02 11:41:26;;;;;;;;;;;;;;;20.52;36.16;97999.34;4990452;28;19980;-85
2022/09/02 11:44:40;;;;;;;;;;;;;;;20.59;36.43;97993.91;4990503;28;19926;-83
2022/09/02 11:47:32;;;;;;;;;;;;;;;20.78;37.15;97984.69;4990289;28;19926;-87
2022/09/02 11:50:54;;;;;;;;;;;;;;;21.02;35.88;97983.34;4995348;28;19934;-86
2022/09/02 11:56:58;;;;;;;;;;;;;;;21.10;35.58;97971.22;5010296;28;19926;-87
2022/09/02 12:00:04;;;;;;;;;;;;;;;21.29;35.59;97976.50;5003771;28;19933;-87
2022/09/02 12:03:00;;;;;;;;;;;;;;;21.31;34.51;97981.72;5021006;28;19976;-83
2022/09/02 12:06:08;;;;;;;;;;;;;;;21.42;34.24;97979.84;5008135;28;19925;-87
2022/09/02 12:09:07;;;;;;;;;;;;;;;21.47;34.36;97985.00;5003080;28;20012;-85
2022/09/02 12:11:56;;;;;;;;;;;;;;;21.29;33.36;97968.22;5004386;28;19941;-87
2022/09/02 12:15:03;;;;;;;;;;;;;;;21.01;35.39;97973.47;5008748;28;19926;-88
2022/09/02 12:18:12;;;;;;;;;;;;;;;21.06;34.68;97970.38;5001785;28;19929;-86
2022/09/02 12:21:05;;;;;;;;;;;;;;;21.18;34.51;97967.34;5004477;28;19953;-85
2022/09/02 12:24:05;;;;;;;;;;;;;;;21.28;34.62;97963.09;4997092;28;19933;-85
2022/09/02 12:31:06;;;;;;;;;;;;;;;21.27;33.12;97967.81;4994800;28;20367;-82
2022/09/02 12:34:22;;;;;;;;;;;;;;;21.08;34.79;97952.22;4994441;28;19998;-85
2022/09/02 12:37:10;;;;;;;;;;;;;;;21.04;34.19;97950.59;5017972;28;19967;-81
2022/09/02 12:40:01;;;;;;;;;;;;;;;21.26;35.98;97946.09;5001729;28;19933;-85
2022/09/02 12:42:52;;;;;;;;;;;;;;;21.46;36.34;97944.72;5000539;28;20005;-83
2022/09/02 12:45:41;;;;;;;;;;;;;;;21.57;36.95;97940.09;4997112;28;20024;-84
2022/09/02 12:48:18;;;;;;;;;;;;;;;21.30;32.43;97947.72;5001979;28;19984;-87
2022/09/02 12:50:54;;;;;;;;;;;;;;;21.30;33.19;97942.19;5000579;28;19926;-86
2022/09/02 12:53:30;;;;;;;;;;;;;;;21.28;33.33;97943.75;5001908;28;19991;-86
2022/09/02 12:56:02;;;;;;;;;;;;;;;21.22;33.04;97946.06;5019820;28;19932;-88
2022/09/02 12:58:33;;;;;;;;;;;;;;;21.10;33.21;97935.31;5001867;28;19926;-85
2022/09/02 13:01:05;;;;;;;;;;;;;;;21.15;36.30;97943.25;5004670;28;20003;-84
2022/09/02 13:04:10;;;;;;;;;;;;;;;20.98;33.52;97941.88;5025524;28;19932;-87
2022/09/02 13:07:14;;;;;;;;;;;;;;;20.91;35.16;97941.81;4998827;28;19926;-84
2022/09/02 13:10:08;;;;;;;;;;;;;;;20.85;34.43;97935.03;4994580;28;19942;-86
2022/09/02 13:12:43;;;;;;;;;;;;;;;20.99;34.82;97931.66;5000968;28;19930;-85
2022/09/02 13:15:16;;;;;;;;;;;;;;;20.98;35.12;97935.56;4993943;28;19933;-86
2022/09/02 13:17:54;;;;;;;;;;;;;;;20.98;35.49;97930.81;4997819;28;19926;-86
2022/09/02 13:20:40;;;;;;;;;;;;;;;20.96;35.75;97932.38;5016283;28;19934;-86
2022/09/02 13:23:19;;;;;;;;;;;;;;;20.89;34.30;97933.13;4998108;28;19925;-86
2022/09/02 13:25:56;;;;;;;;;;;;;;;21.02;34.09;97930.88;5000510;28;19964;-87
2022/09/02 13:28:37;;;;;;;;;;;;;;;21.13;34.04;97921.50;5006568;28;20349;-86
2022/09/02 13:31:07;;;;;;;;;;;;;;;21.10;33.64;97915.97;5005900;28;19925;-86
2022/09/02 13:33:36;;;;;;;;;;;;;;;21.22;33.69;97904.63;5009070;28;19933;-87
2022/09/02 13:36:09;;;;;;;;;;;;;;;20.99;34.31;97899.28;5004096;28;19926;-86
2022/09/02 13:38:37;;;;;;;;;;;;;;;21.11;34.34;97901.75;5013068;28;20407;-85
2022/09/02 13:41:06;;;;;;;;;;;;;;;21.30;33.80;97903.53;4999946;28;19925;-86
2022/09/02 13:43:34;;;;;;;;;;;;;;;21.15;34.10;97907.34;5014923;28;19926;-86
2022/09/02 13:46:04;;;;;;;;;;;;;;;21.27;35.41;97909.00;5011129;28;19925;-86
2022/09/02 13:48:32;;;;;;;;;;;;;;;21.36;35.71;97907.53;5015571;28;20577;-85
2022/09/02 13:51:02;;;;;;;;;;;;;;;21.40;35.23;97899.25;5007330;28;19965;-86
2022/09/02 13:53:32;;;;;;;;;;;;;;;21.59;35.60;97898.22;4996580;28;19964;-87
2022/09/02 13:56:46;;;;;;;;;;;;;;;21.63;33.86;97899.06;5011433;28;19935;-86
2022/09/02 13:59:14;;;;;;;;;;;;;;;21.61;34.25;97890.34;5006300;28;19932;-85
2022/09/02 14:01:43;;;;;;;;;;;;;;;21.60;33.19;97894.28;4995231;28;19949;-84
2022/09/02 14:04:13;;;;;;;;;;;;;;;21.64;33.03;97895.09;5022315;28;19925;-84
2022/09/02 14:06:42;;;;;;;;;;;;;;;21.65;35.08;97885.63;5010573;28;19930;-86
2022/09/02 14:09:11;;;;;;;;;;;;;;;21.82;35.08;97881.38;4995396;28;19943;-86
2022/09/02 14:11:46;;;;;;;;;;;;;;;21.31;33.88;97883.03;5016413;28;19936;-84
2022/09/02 14:14:17;;;;;;;;;;;;;;;21.52;35.16;97876.03;5006856;28;19944;-86
2022/09/02 14:16:46;;;;;;;;;;;;;;;21.38;34.32;97858.19;5006409;28;20035;-86
2022/09/02 14:19:39;;;;;;;;;;;;;;;21.26;32.88;97863.22;5010171;28;20006;-84
2022/09/02 14:22:07;;;;;;;;;;;;;;;21.54;35.51;97868.19;5002951;28;19968;-86
2022/09/02 14:30:33;;;;;;;;;;;;;;;21.49;34.56;97860.25;5003900;28;20014;-85
2022/09/02 14:33:19;;;;;;;;;;;;;;;21.62;34.23;97859.53;5010709;28;19940;-84
2022/09/02 14:36:00;;;;;;;;;;;;;;;21.62;33.90;97855.97;5005876;28;20382;-85
2022/09/02 14:38:29;;;;;;;;;;;;;;;21.67;33.95;97852.84;5008358;28;19991;-86
2022/09/02 14:41:01;;;;;;;;;;;;;;;21.83;33.43;97858.06;5006555;28;19957;-83
2022/09/02 14:43:30;;;;;;;;;;;;;;;21.49;32.69;97857.47;5005681;28;19947;-85
2022/09/02 14:46:04;;;;;;;;;;;;;;;21.67;33.40;97852.84;5004487;28;20000;-85
2022/09/02 14:48:36;;;;;;;;;;;;;;;21.65;33.35;97849.69;5003006;28;19937;-85
2022/09/02 14:51:05;;;;;;;;;;;;;;;21.65;32.99;97844.94;5014320;28;19990;-86
2022/09/02 14:53:36;;;;;;;;;;;;;;;21.69;33.97;97843.00;5015441;28;19947;-87
2022/09/02 14:56:07;;;;;;;;;;;;;;;21.52;34.03;97837.34;5010158;28;19940;-86
2022/09/02 14:58:35;;;;;;;;;;;;;;;21.63;33.55;97850.06;5003275;28;20058;-86
2022/09/02 15:01:07;;;;;;;;;;;;;;;21.89;33.71;97840.75;5025896;28;19952;-85
2022/09/02 15:04:03;;;;;;;;;;;;;;;21.77;33.92;97841.06;5021784;28;19947;-86
2022/09/02 15:06:35;;;;;;;;;;;;;;;21.87;33.83;97847.81;5025569;28;19959;-86
2022/09/02 15:09:05;;;;;;;;;;;;;;;21.76;32.97;97831.19;5020844;28;20040;-85
2022/09/02 15:11:59;;;;;;;;;;;;;;;21.59;34.11;97831.88;5005536;28;19941;-85
2022/09/02 15:14:29;;;;;;;;;;;;;;;21.41;34.42;97820.69;5012587;28;20334;-86
2022/09/02 15:16:58;;;;;;;;;;;;;;;21.58;34.47;97838.59;5012996;28;19936;-86
2022/09/02 15:19:37;;;;;;;;;;;;;;;21.64;33.64;97839.81;5005458;28;19955;-86
2022/09/02 15:22:06;;;;;;;;;;;;;;;21.74;33.36;97830.78;4988544;28;20057;-86
2022/09/02 15:24:34;;;;;;;;;;;;;;;21.68;32.85;97829.56;5009073;28;19943;-84
2022/09/02 15:27:26;;;;;;;;;;;;;;;21.79;33.31;97822.13;4993619;28;19936;-87
2022/09/02 15:29:54;;;;;;;;;;;;;;;21.62;33.62;97825.56;5004172;28;19985;-85
2022/09/02 15:32:22;;;;;;;;;;;;;;;21.82;33.53;97815.78;5002231;28;19941;-87